Latest Coastal Weather Observations for Cape Moreton

IDQ60701

Issued at 11:51 pm EST Wednesday 26 April 2017 (issued every 10 minutes, with the page automatically refreshed every 10 minutes)

About coastal observations | Map of coastal stations | Coastal observations for QLD | Marine services | Other Formats
Station Details ID: 040043 Name: CAPE MORETON LIGHTHOUSE Lat: -27.03 Lon: 153.47 Height: 99.9 m
Data from the previous 72 hours. | See also: Recent months at Cape Moreton
Date/Time
EST
Temp
°C
Wind Pressure Rain since
9am
mm
Weather Cloud Vis
km
Sea
Height
m
Swell
Dir  Spd
kts
Gust
kts
hPa Trend Height
m
Period
s
Dir
26/11:30pm 20.7 SW 10 15 1011.3 - 0.2 - - - - - - -
26/11:00pm 21.1 SW 12 18 1011.1 - 0.2 - - - - - - -
26/10:30pm 21.5 SW 11 18 1011.1 - 0.2 - - - - - - -
26/10:00pm 22.4 WSW 12 17 1011.2 - 0.2 - - - - - - -
26/09:30pm 22.6 W 10 13 1011.1 - 0.2 - - - - - - -
26/09:00pm 22.8 WNW 10 14 1010.8 - 0.2 Recent precip. - - - - - -
26/08:30pm 23.1 NW 10 14 1010.5 - 0.0 - - - - - - -
26/08:00pm 23.4 NW 13 17 1010.4 - 0.0 - - - - - - -
26/07:30pm 23.4 NNW 11 17 1010.1 - 0.0 - - - - - - -
26/07:00pm 23.6 NW 15 23 1009.8 - 0.0 - - - - - - -
26/06:30pm 23.4 NNW 17 22 1009.3 - 0.0 - - - - - - -
26/06:00pm 23.3 NNW 15 20 1009.2 - 0.0 - - - - - - -
26/05:30pm 23.1 NNW 17 22 1008.7 - 0.0 - - - - - - -
26/05:00pm 23.0 NNW 18 25 1008.7 - 0.0 - - - - - - -
26/04:30pm 23.2 N 17 22 1008.5 - 0.0 - - - - - - -
26/04:00pm 23.3 N 13 19 1008.4 - 0.0 - - - - - - -
26/03:30pm 23.4 N 16 19 1009.3 - 0.0 - - - - - - -
26/03:00pm 23.6 N 14 19 1009.2 - 0.0 - - - - - - -
26/02:30pm 23.2 N 15 20 1009.3 - 0.0 - - - - - - -
26/02:00pm 23.0 N 14 19 1009.5 - 0.0 - - - - - - -
26/01:30pm 23.1 N 16 19 1009.8 - 0.0 - - - - - - -
26/01:00pm 22.7 NNW 14 18 1010.5 - 0.0 - - - - - - -
26/12:30pm 22.9 NNW 17 20 1010.7 - 0.0 - - - - - - -
26/12:00pm 24.5 NNW 12 17 1011.4 - 0.0 - - - - - - -
26/11:30am 23.3 NNW 13 18 1011.9 - 0.0 - - - - - - -
26/11:00am 23.7 NW 16 20 1012.7 - 0.0 - - - - - - -
26/10:30am 23.1 NW 16 21 1013.1 - 0.0 - - - - - - -
26/10:00am 23.3 NW 15 20 1013.4 - 0.0 - - - - - - -
26/09:30am 22.9 NW 12 17 1013.7 - 0.0 - - - - - - -
26/09:00am 22.4 NW 14 20 1013.5 - 0.0 - - - - - - -
26/08:30am 22.6 NW 13 19 1013.9 - 0.0 - - - - - - -
26/08:00am 22.3 NW 14 19 1013.9 - 0.0 - - - - - - -
26/07:30am 22.0 NW 12 17 1013.8 - 0.0 - - - - - - -
26/07:00am 22.1 NW 15 19 1013.6 - 0.0 - - - - - - -
26/06:30am 21.8 NW 13 16 1013.7 - 0.0 - - - - - - -
26/06:00am 21.6 NW 14 18 1013.4 - 0.0 - - - - - - -
26/05:30am 21.6 NW 15 19 1013.5 - 0.0 - - - - - - -
26/05:00am 21.5 NW 14 18 1013.3 - 0.0 - - - - - - -
26/04:30am 21.4 NW 13 17 1013.2 - 0.0 - - - - - - -
26/04:00am 21.2 NW 11 15 1013.1 - 0.0 - - - - - - -
26/03:30am 21.2 NW 11 16 1013.2 - 0.0 - - - - - - -
26/03:00am 21.5 NW 11 14 1013.1 - 0.0 - - - - - - -
26/02:30am 21.9 NW 12 15 1013.1 - 0.0 - - - - - - -
26/02:00am 22.3 NNW 12 17 1013.3 - 0.0 - - - - - - -
26/01:30am 22.3 NNW 14 19 1013.6 - 0.0 - - - - - - -
26/01:00am 22.4 N 16 20 1013.7 - 0.0 - - - - - - -
26/12:30am 22.4 N 15 19 1014.0 - 0.0 - - - - - - -
26/12:00am 22.3 N 14 19 1014.3 - 0.0 - - - - - - -
 
Date/Time
EST
Temp
°C
Wind Pressure Rain since
9am
mm
Weather Cloud Vis
km
Sea
Height
m
Swell
Dir  Spd
kts
Gust
kts
hPa Trend Height
m
Period
s
Dir
25/11:30pm 22.2 N 13 16 1014.7 - 0.0 - - - - - - -
25/11:00pm 22.2 N 13 16 1015.1 - 0.0 - - - - - - -
25/10:30pm 22.1 N 12 15 1015.4 - 0.0 - - - - - - -
25/10:00pm 22.0 N 11 14 1015.7 - 0.0 - - - - - - -
25/09:30pm 22.0 N 10 13 1015.8 - 0.0 - - - - - - -
25/09:00pm 21.9 N 9 12 1015.9 - 0.0 - - - - - - -
25/08:30pm 21.9 NNE 10 12 1015.9 - 0.0 - - - - - - -
25/08:00pm 22.0 NNE 9 13 1015.8 - 0.0 - - - - - - -
25/07:30pm 21.9 NNE 9 12 1015.6 - 0.0 - - - - - - -
25/07:00pm 21.8 NNE 8 11 1015.7 - 0.0 - - - - - - -
25/06:30pm 21.7 N 8 11 1015.5 - 0.0 - - - - - - -
25/06:00pm 21.8 NNE 9 11 1015.2 - 0.0 - - - - - - -
25/05:30pm 21.7 NNE 10 12 1014.8 - 0.0 - - - - - - -
25/05:00pm 21.9 ENE 9 11 1015.1 - 0.0 - - - - - - -
25/04:30pm 22.1 ENE 8 10 1015.1 - 0.0 - - - - - - -
25/04:00pm 22.4 ENE 8 10 1015.2 - 0.0 - - - - - - -
25/03:30pm 22.7 ENE 7 9 1015.4 - 0.0 - - - - - - -
25/03:00pm 22.8 ENE 7 9 1015.4 - 0.0 - - - - - - -
25/02:30pm 23.6 E 6 7 1015.6 - 0.0 - - - - - - -
25/02:00pm 23.9 E 7 8 1015.7 - 0.0 - - - - - - -
25/01:30pm 24.6 E 7 8 1016.0 - 0.0 - - - - - - -
25/01:00pm 24.5 ESE 7 10 1016.4 - 0.0 - - - - - - -
25/12:30pm 24.7 ESE 7 9 1016.9 - 0.0 - - - - - - -
25/12:00pm 24.2 SE 7 9 1017.5 - 0.0 - - - - - - -
25/11:30am 24.4 SE 7 9 1017.8 - 0.0 - - - - - - -
25/11:00am 24.4 SE 8 9 1018.0 - 0.0 - - - - - - -
25/10:30am 23.1 SE 7 9 1018.6 - 0.0 - - - - - - -
25/10:00am 23.1 SE 7 9 1019.1 - 0.0 - - - - - - -
25/09:30am 23.5 SE 7 10 1019.1 - 0.0 - - - - - - -
25/09:00am 23.1 SSE 8 11 1019.1 - 0.2 - - - - - - -
25/08:30am 22.4 S 7 11 1019.1 - 0.2 - - - - - - -
25/08:00am 22.4 S 6 8 1018.9 - 0.2 - - - - - - -
25/07:30am 21.5 S 7 9 1018.6 - 0.2 - - - - - - -
25/07:00am 20.9 S 8 9 1018.5 - 0.2 - - - - - - -
25/06:30am 19.7 S 7 9 1018.3 - 0.2 - - - - - - -
25/06:00am 19.8 S 8 11 1018.0 - 0.2 - - - - - - -
25/05:30am 19.4 S 8 10 1017.7 - 0.2 - - - - - - -
25/05:00am 20.0 S 8 11 1017.5 - 0.2 - - - - - - -
25/04:30am 20.8 ESE 11 13 1017.4 - 0.2 - - - - - - -
25/04:00am 21.0 SE 9 12 1017.6 - 0.2 - - - - - - -
25/03:30am 20.9 SE 10 12 1017.8 - 0.2 - - - - - - -
25/03:00am 21.1 ESE 9 12 1017.8 - 0.2 - - - - - - -
25/02:30am 21.0 ESE 11 13 1017.8 - 0.2 - - - - - - -
25/02:00am 21.2 ESE 11 14 1017.8 - 0.2 - - - - - - -
25/01:30am 21.3 ESE 12 14 1018.1 - 0.2 - - - - - - -
25/01:00am 21.2 ESE 12 15 1018.2 - 0.2 - - - - - - -
25/12:30am 21.1 ESE 11 14 1018.6 - 0.2 - - - - - - -
25/12:00am 21.3 ESE 13 15 1019.1 - 0.2 - - - - - - -
 
Date/Time
EST
Temp
°C
Wind Pressure Rain since
9am
mm
Weather Cloud Vis
km
Sea
Height
m
Swell
Dir  Spd
kts
Gust
kts
hPa Trend Height
m
Period
s
Dir
24/11:30pm 21.3 ESE 11 13 1019.4 - 0.2 - - - - - - -
24/11:00pm 21.3 ESE 12 15 1019.4 - 0.2 - - - - - - -
24/10:30pm 21.3 ESE 13 15 1019.6 - 0.2 - - - - - - -
24/10:00pm 21.3 ESE 11 15 1019.9 - 0.2 - - - - - - -
24/09:30pm 21.2 ESE 12 14 1019.9 - 0.2 - - - - - - -
24/09:00pm 21.3 ESE 13 15 1020.1 - 0.2 - - - - - - -
24/08:30pm 21.3 ESE 12 15 1020.0 - 0.2 - - - - - - -
24/08:00pm 21.4 ESE 14 18 1019.9 - 0.2 - - - - - - -
24/07:30pm 21.5 ESE 15 18 1019.7 - 0.2 - - - - - - -
24/07:00pm 21.6 ESE 15 18 1019.3 - 0.2 - - - - - - -
24/06:30pm 21.5 ESE 16 19 1019.1 - 0.2 - - - - - - -
24/06:00pm 21.6 ESE 15 19 1018.8 - 0.2 - - - - - - -
24/05:30pm 21.5 ESE 16 19 1018.4 - 0.2 - - - - - - -
24/05:00pm 21.7 ESE 16 21 1018.2 - 0.2 - - - - - - -
24/04:30pm 22.1 ESE 15 19 1018.3 - 0.2 - - - - - - -
24/04:00pm 22.5 SE 15 18 1018.3 - 0.2 - - - - - - -
24/03:30pm 22.3 SE 11 13 1018.4 - 0.2 - - - - - - -
24/03:00pm 22.0 SE 14 18 1018.1 - 0.2 - - - - - - -
24/02:30pm 22.3 SE 15 18 1018.2 - 0.2 - - - - - - -
24/02:00pm 22.1 SE 17 20 1018.5 - 0.2 - - - - - - -
24/01:30pm 22.2 SSE 19 22 1018.7 - 0.2 - - - - - - -
24/01:00pm 22.2 SSE 12 18 1019.0 - 0.2 - - - - - - -
24/12:30pm 22.9 SSE 16 22 1019.2 - 0.2 - - - - - - -
24/12:00pm 23.5 SE 15 18 1019.5 - 0.2 - - - - - - -
24/11:30am 22.5 SE 12 16 1020.0 - 0.2 - - - - - - -
24/11:00am 21.8 SSE 12 18 1020.5 - 0.2 - - - - - - -
24/10:30am 23.8 SSE 11 15 1020.9 - 0.0 - - - - - - -
24/10:00am 23.7 SE 13 16 1020.9 - 0.0 - - - - - - -
24/09:30am 24.2 SE 13 16 1021.0 - 0.0 - - - - - - -
24/09:00am 23.7 SE 12 15 1020.9 - 0.2 - - - - - - -
24/08:30am 22.7 SSE 10 15 1020.8 - 0.2 - - - - - - -
24/08:00am 22.4 SE 14 16 1020.5 - 0.2 - - - - - - -
24/07:30am 22.1 SE 15 19 1020.3 - 0.2 - - - - - - -
24/07:00am 20.6 SE 15 18 1019.9 - 0.2 - - - - - - -
24/06:30am 19.9 S 11 16 1019.7 - 0.2 - - - - - - -
24/06:00am 19.3 SSW 8 11 1019.6 - 0.2 Recent precip. - - - - - -
24/05:30am 19.6 SSW 7 10 1019.5 - 0.0 - - - - - - -
24/05:00am 19.8 S 10 16 1019.2 - 0.0 - - - - - - -
24/04:30am 21.5 ESE 13 17 1019.0 - 0.0 - - - - - - -
24/04:00am 21.3 SE 13 16 1019.0 - 0.0 - - - - - - -
24/03:30am 21.3 SSE 10 13 1019.3 - 0.0 - - - - - - -
24/03:00am 21.3 SE 9 13 1019.3 - 0.0 - - - - - - -
24/02:30am 21.4 SE 11 14 1019.4 - 0.0 - - - - - - -
24/02:00am 21.4 SE 13 16 1019.8 - 0.0 - - - - - - -
24/01:30am 21.5 ESE 11 14 1020.1 - 0.0 - - - - - - -
24/01:00am 21.4 ESE 14 17 1020.0 - 0.0 - - - - - - -
24/12:30am 21.6 SE 12 15 1020.6 - 0.0 - - - - - - -
24/12:00am 21.6 SE 11 14 1021.0 - 0.0 - - - - - - -

Other Formats:

Comma delimited format used in spreadsheet applications
http://www.bom.gov.au/fwo/IDQ60701/IDQ60701.94594.axf

JavaScript Object Notation format (JSON) in row-major order
http://www.bom.gov.au/fwo/IDQ60701/IDQ60701.94594.json